createdAt,value
2022-09-09T00:01:39.073Z,100953.84
2022-09-09T00:04:12.437Z,100947.69
2022-09-09T00:06:54.421Z,100940.78
2022-09-09T00:09:26.897Z,100943.34
2022-09-09T00:12:04.496Z,100935.00
2022-09-09T00:14:58.386Z,100938.44
2022-09-09T00:17:35.436Z,100930.78
2022-09-09T00:20:29.155Z,100923.84
2022-09-09T00:23:04.312Z,100922.94
2022-09-09T00:25:41.076Z,100925.44
2022-09-09T00:28:28.225Z,100927.13
2022-09-09T00:30:57.148Z,100923.03
2022-09-09T00:33:25.772Z,100930.16
2022-09-09T00:35:57.781Z,100942.28
2022-09-09T00:38:43.086Z,100939.06
2022-09-09T00:41:31.303Z,100926.34
2022-09-09T00:44:19.641Z,100932.69
2022-09-09T00:47:05.709Z,100919.19
2022-09-09T00:49:59.246Z,100928.03
2022-09-09T00:52:27.462Z,100925.81
2022-09-09T00:55:04.228Z,100927.63
2022-09-09T00:57:36.648Z,100932.88
2022-09-09T01:00:06.050Z,100925.97
2022-09-09T01:03:18.782Z,100932.00
2022-09-09T01:06:03.849Z,100935.63
2022-09-09T01:09:09.344Z,100934.34
2022-09-09T01:11:45.025Z,100937.09
2022-09-09T01:14:40.987Z,100939.75
2022-09-09T01:17:20.567Z,100938.31
2022-09-09T01:20:06.237Z,100940.94
2022-09-09T01:22:46.343Z,100932.38
2022-09-09T01:25:27.871Z,100935.91
2022-09-09T01:28:10.339Z,100919.59
2022-09-09T01:30:39.623Z,100918.91
2022-09-09T01:33:06.730Z,100918.19
2022-09-09T01:35:48.135Z,100908.84
2022-09-09T01:38:15.779Z,100912.47
2022-09-09T01:40:42.427Z,100910.06
2022-09-09T01:43:09.121Z,100922.03
2022-09-09T01:45:36.311Z,100916.97
2022-09-09T01:48:04.135Z,100921.50
2022-09-09T01:50:30.879Z,100923.28
2022-09-09T01:53:00.813Z,100922.38
2022-09-09T01:55:31.783Z,100918.94
2022-09-09T01:58:18.364Z,100922.56
2022-09-09T02:00:56.996Z,100913.28
2022-09-09T02:03:29.398Z,100913.22
2022-09-09T02:06:20.409Z,100903.84
2022-09-09T02:08:54.115Z,100900.63
2022-09-09T02:11:23.901Z,100896.53
2022-09-09T02:13:53.956Z,100899.09
2022-09-09T02:16:25.896Z,100905.16
2022-09-09T02:19:07.971Z,100897.53
2022-09-09T02:21:36.172Z,100900.97
2022-09-09T02:24:06.468Z,100900.19
2022-09-09T02:26:36.460Z,100892.69
2022-09-09T02:29:06.215Z,100890.94
2022-09-09T02:31:36.810Z,100890.22
2022-09-09T02:34:06.355Z,100898.97
2022-09-09T02:36:35.235Z,100898.97
2022-09-09T02:39:02.226Z,100897.31
2022-09-09T02:41:33.790Z,100894.75
2022-09-09T02:44:00.772Z,100901.69
2022-09-09T02:46:36.404Z,100904.34
2022-09-09T02:49:10.525Z,100895.84
2022-09-09T02:52:07.900Z,100903.63
2022-09-09T02:54:38.881Z,100891.66
2022-09-09T02:57:23.998Z,100900.97
2022-09-09T02:59:53.088Z,100890.75
2022-09-09T03:02:19.849Z,100890.91
2022-09-09T03:04:51.967Z,100892.63
2022-09-09T03:07:20.353Z,100898.69
2022-09-09T03:09:46.905Z,100890.09
2022-09-09T03:12:13.716Z,100892.81
2022-09-09T03:14:40.222Z,100885.34
2022-09-09T03:17:08.152Z,100882.91
2022-09-09T03:19:36.314Z,100892.34
2022-09-09T03:22:02.815Z,100897.50
2022-09-09T03:24:29.249Z,100892.44
2022-09-09T03:26:56.886Z,100889.94
2022-09-09T03:29:23.430Z,100885.75
2022-09-09T03:31:49.946Z,100893.59
2022-09-09T03:34:16.400Z,100888.44
2022-09-09T03:36:42.924Z,100882.53
2022-09-09T03:39:09.516Z,100888.59
2022-09-09T03:41:35.981Z,100891.16
2022-09-09T03:44:02.656Z,100888.59
2022-09-09T03:46:29.286Z,100893.09
2022-09-09T03:48:55.831Z,100887.28
2022-09-09T03:51:23.048Z,100886.50
2022-09-09T03:53:50.076Z,100882.16
2022-09-09T03:56:16.614Z,100880.47
2022-09-09T03:58:43.147Z,100886.50
2022-09-09T04:01:15.968Z,100878.78
2022-09-09T04:03:43.480Z,100885.69
2022-09-09T04:06:12.769Z,100882.31
2022-09-09T04:08:39.559Z,100875.38
2022-09-09T04:11:07.585Z,100884.81
2022-09-09T04:13:36.344Z,100884.91
2022-09-09T04:16:04.741Z,100880.72
2022-09-09T04:18:32.396Z,100882.38
2022-09-09T04:20:59.192Z,100881.59
2022-09-09T04:23:28.280Z,100879.75
2022-09-09T04:25:56.430Z,100870.31
2022-09-09T04:28:25.181Z,100864.38
2022-09-09T04:30:52.702Z,100865.16
2022-09-09T04:33:20.064Z,100871.06
2022-09-09T04:35:48.779Z,100875.19
2022-09-09T04:38:15.920Z,100873.25
2022-09-09T04:40:47.813Z,100868.00
2022-09-09T04:43:15.730Z,100866.91
2022-09-09T04:45:43.198Z,100860.78
2022-09-09T04:48:13.118Z,100862.41
2022-09-09T04:50:39.753Z,100861.53
2022-09-09T04:53:06.896Z,100861.53
2022-09-09T04:55:34.764Z,100851.31
2022-09-09T04:58:06.513Z,100839.25
2022-09-09T05:00:35.791Z,100850.44
2022-09-09T05:03:06.596Z,100860.78
2022-09-09T05:05:37.378Z,100861.69
2022-09-09T05:08:06.145Z,100866.84
2022-09-09T05:10:33.793Z,100866.84
2022-09-09T05:13:00.751Z,100869.47
2022-09-09T05:15:27.233Z,100863.44
2022-09-09T05:17:54.138Z,100859.13
2022-09-09T05:20:20.758Z,100855.75
2022-09-09T05:22:47.208Z,100858.34
2022-09-09T05:25:13.777Z,100854.94
2022-09-09T05:27:40.392Z,100853.25
2022-09-09T05:30:07.484Z,100845.53
2022-09-09T05:32:34.393Z,100847.16
2022-09-09T05:35:00.855Z,100833.38
2022-09-09T05:37:27.524Z,100834.22
2022-09-09T05:39:54.496Z,100837.63
2022-09-09T05:42:21.050Z,100838.38
2022-09-09T05:44:47.541Z,100845.13
2022-09-09T05:47:14.222Z,100840.72
2022-09-09T05:49:40.991Z,100846.69
2022-09-09T05:52:07.711Z,100844.06
2022-09-09T05:54:34.168Z,100835.31
2022-09-09T05:57:02.127Z,100840.31
2022-09-09T05:59:28.875Z,100847.81
2022-09-09T06:01:55.569Z,100846.72
2022-09-09T06:04:23.476Z,100852.59
2022-09-09T06:06:49.955Z,100862.66
2022-09-09T06:09:16.491Z,100858.22
2022-09-09T06:11:43.621Z,100854.53
2022-09-09T06:14:10.651Z,100849.13
2022-09-09T06:16:38.901Z,100854.75
2022-09-09T06:19:37.794Z,100849.19
2022-09-09T06:22:04.393Z,100848.00
2022-09-09T06:24:31.309Z,100846.13
2022-09-09T06:26:58.985Z,100846.66
2022-09-09T06:29:28.513Z,100841.41
2022-09-09T06:31:55.044Z,100836.94
2022-09-09T06:34:22.049Z,100845.19
2022-09-09T06:36:48.530Z,100843.69
2022-09-09T06:39:16.510Z,100835.28
2022-09-09T06:41:52.385Z,100838.72
2022-09-09T06:44:18.907Z,100836.41
2022-09-09T06:46:50.609Z,100838.53
2022-09-09T06:49:19.035Z,100838.41
2022-09-09T06:51:45.600Z,100833.69
2022-09-09T06:54:13.304Z,100829.81
2022-09-09T06:56:42.861Z,100836.50
2022-09-09T06:59:17.875Z,100835.50
2022-09-09T07:01:55.769Z,100832.59
2022-09-09T07:04:22.931Z,100832.50
2022-09-09T07:07:14.693Z,100829.66
2022-09-09T07:09:41.599Z,100835.19
2022-09-09T07:12:08.271Z,100832.13
2022-09-09T07:14:37.175Z,100836.72
2022-09-09T07:17:05.096Z,100835.47
2022-09-09T07:19:31.643Z,100837.91
2022-09-09T07:21:58.166Z,100846.38
2022-09-09T07:24:24.860Z,100834.63
2022-09-09T07:26:54.101Z,100839.72
2022-09-09T07:29:21.487Z,100838.81
2022-09-09T07:31:49.551Z,100842.22
2022-09-09T07:34:16.288Z,100846.66
2022-09-09T07:36:43.518Z,100854.41
2022-09-09T07:39:12.143Z,100852.97
2022-09-09T07:41:44.010Z,100860.72
2022-09-09T07:44:19.543Z,100848.47
2022-09-09T07:46:46.733Z,100845.72
2022-09-09T07:49:14.545Z,100849.13
2022-09-09T07:51:47.109Z,100847.41
2022-09-09T07:54:16.347Z,100847.94
2022-09-09T07:56:43.612Z,100841.44
2022-09-09T07:59:11.757Z,100842.44
2022-09-09T08:01:47.643Z,100838.00
2022-09-09T08:04:17.614Z,100845.59
2022-09-09T08:06:50.720Z,100852.06
2022-09-09T08:09:17.732Z,100853.69
2022-09-09T08:11:44.735Z,100847.94
2022-09-09T08:14:12.608Z,100852.56
2022-09-09T08:16:42.370Z,100851.06
2022-09-09T08:19:49.992Z,100853.72
2022-09-09T08:22:16.600Z,100845.34
2022-09-09T08:24:43.385Z,100861.75
2022-09-09T08:27:18.217Z,100859.09
2022-09-09T08:29:45.366Z,100863.47
2022-09-09T08:32:11.903Z,100865.47
2022-09-09T08:34:41.319Z,100860.75
2022-09-09T08:37:13.542Z,100874.69
2022-09-09T08:39:40.118Z,100869.59
2022-09-09T08:42:42.140Z,100870.25
2022-09-09T08:45:30.139Z,100872.69
2022-09-09T08:48:57.877Z,100873.31
2022-09-09T08:51:28.823Z,100877.41
2022-09-09T08:53:59.796Z,100875.44
2022-09-09T08:56:29.464Z,100879.50
2022-09-09T08:59:20.197Z,100875.84
2022-09-09T09:02:17.001Z,100882.34
2022-09-09T09:04:54.555Z,100882.44
2022-09-09T09:07:37.766Z,100878.84
2022-09-09T09:10:50.395Z,100876.66
2022-09-09T09:13:22.197Z,100887.19
2022-09-09T09:15:57.706Z,100884.50
2022-09-09T09:18:24.379Z,100886.41
2022-09-09T09:21:03.054Z,100883.34
2022-09-09T09:23:40.700Z,100887.94
2022-09-09T09:26:11.783Z,100887.13
2022-09-09T09:28:43.727Z,100890.63
2022-09-09T09:31:11.997Z,100883.25
2022-09-09T09:33:41.926Z,100890.91
2022-09-09T09:36:09.387Z,100884.16
2022-09-09T09:41:40.103Z,100887.19
2022-09-09T09:44:23.196Z,100890.59
2022-09-09T09:46:49.709Z,100888.19
2022-09-09T09:49:16.222Z,100886.22
2022-09-09T09:51:42.729Z,100891.16
2022-09-09T09:54:16.681Z,100889.81
2022-09-09T09:56:44.521Z,100891.13
2022-09-09T09:59:38.758Z,100890.13
2022-09-09T10:02:25.890Z,100888.34
2022-09-09T10:05:26.818Z,100880.66
2022-09-09T10:08:12.358Z,100883.94
2022-09-09T10:11:03.091Z,100880.53
2022-09-09T10:13:43.338Z,100876.16
2022-09-09T10:16:28.509Z,100881.53
2022-09-09T10:19:20.513Z,100885.13
2022-09-09T10:22:09.015Z,100879.84
2022-09-09T10:24:52.148Z,100879.66
2022-09-09T10:27:36.892Z,100885.75
2022-09-09T10:30:30.238Z,100889.28
2022-09-09T10:33:14.452Z,100898.53
2022-09-09T10:35:59.664Z,100902.03
2022-09-09T10:38:35.014Z,100896.09
2022-09-09T10:41:19.368Z,100891.94
2022-09-09T10:44:01.716Z,100894.38
2022-09-09T10:47:10.755Z,100893.22
2022-09-09T10:50:08.026Z,100895.84
2022-09-09T10:53:00.504Z,100893.88
2022-09-09T10:55:52.613Z,100903.38
2022-09-09T10:58:34.514Z,100892.69
2022-09-09T11:01:10.955Z,100891.34
2022-09-09T11:03:41.814Z,100886.50
2022-09-09T11:06:16.836Z,100888.31
2022-09-09T11:08:44.544Z,100882.91
2022-09-09T11:11:17.811Z,100891.81
2022-09-09T11:13:54.798Z,100871.56
2022-09-09T11:16:39.457Z,100882.84
2022-09-09T11:19:44.681Z,100877.78
2022-09-09T11:22:27.552Z,100871.59
2022-09-09T11:25:24.100Z,100866.59
2022-09-09T11:28:34.937Z,100868.28
2022-09-09T11:31:19.784Z,100866.44
2022-09-09T11:34:04.256Z,100868.50
2022-09-09T11:36:56.078Z,100862.94
2022-09-09T11:39:31.815Z,100869.03
2022-09-09T11:42:13.599Z,100859.22
2022-09-09T11:44:40.812Z,100861.34
2022-09-09T11:47:33.025Z,100859.31
2022-09-09T11:50:27.809Z,100855.72
2022-09-09T11:53:14.846Z,100857.66
2022-09-09T11:55:41.648Z,100867.56
2022-09-09T11:58:26.819Z,100862.09
2022-09-09T12:00:54.219Z,100865.91
2022-09-09T12:03:45.582Z,100867.09
2022-09-09T12:06:21.276Z,100867.50
2022-09-09T12:08:57.690Z,100872.56
2022-09-09T12:11:29.818Z,100866.53
2022-09-09T12:13:58.548Z,100867.28
2022-09-09T12:16:38.374Z,100866.63
2022-09-09T12:19:30.005Z,100869.47
2022-09-09T12:22:01.971Z,100870.38
2022-09-09T12:24:42.902Z,100873.59
2022-09-09T12:27:46.744Z,100863.03
2022-09-09T12:30:16.433Z,100871.38
2022-09-09T12:32:45.545Z,100869.72
2022-09-09T12:35:22.575Z,100865.78
2022-09-09T12:38:16.116Z,100867.00
2022-09-09T12:40:42.663Z,100867.94
2022-09-09T12:43:22.340Z,100871.00
2022-09-09T12:45:57.627Z,100858.41
2022-09-09T12:48:32.061Z,100853.47
2022-09-09T12:50:59.106Z,100854.41
2022-09-09T12:53:29.999Z,100847.81
2022-09-09T12:56:01.052Z,100851.63
2022-09-09T12:58:29.380Z,100846.16
2022-09-09T13:00:58.431Z,100852.09
2022-09-09T13:03:28.332Z,100849.84
2022-09-09T13:06:01.368Z,100854.09
2022-09-09T13:08:29.231Z,100848.38
2022-09-09T13:11:02.789Z,100850.25
2022-09-09T13:13:37.223Z,100852.88
2022-09-09T13:16:08.250Z,100856.13
2022-09-09T13:18:39.203Z,100851.78
2022-09-09T13:21:06.067Z,100858.44
2022-09-09T13:23:36.257Z,100860.75
2022-09-09T13:26:22.770Z,100849.34
2022-09-09T13:29:18.778Z,100852.53
2022-09-09T13:31:46.041Z,100848.03
2022-09-09T13:34:14.204Z,100843.97
2022-09-09T13:36:42.562Z,100843.22
2022-09-09T13:39:19.537Z,100846.31
2022-09-09T13:41:49.597Z,100838.28
2022-09-09T13:44:24.962Z,100842.53
2022-09-09T13:47:20.085Z,100834.47
2022-09-09T13:49:47.189Z,100850.38
2022-09-09T13:52:19.931Z,100843.22
2022-09-09T13:54:52.034Z,100845.19
2022-09-09T13:57:22.082Z,100842.88
2022-09-09T14:00:07.941Z,100838.63
2022-09-09T14:02:35.030Z,100847.44
2022-09-09T14:05:01.983Z,100845.13
2022-09-09T14:07:30.109Z,100851.25
2022-09-09T14:09:56.773Z,100838.09
2022-09-09T14:12:23.252Z,100842.44
2022-09-09T14:14:50.649Z,100843.56
2022-09-09T14:17:17.152Z,100843.56
2022-09-09T14:19:43.877Z,100835.91
2022-09-09T14:22:10.256Z,100834.97
2022-09-09T14:24:36.788Z,100832.06
2022-09-09T14:27:03.394Z,100833.75
2022-09-09T14:29:29.781Z,100828.56
2022-09-09T14:31:56.287Z,100835.69
2022-09-09T14:34:22.630Z,100838.28
2022-09-09T14:36:49.302Z,100838.38
2022-09-09T14:39:15.690Z,100828.22
2022-09-09T14:41:42.067Z,100843.22
2022-09-09T14:44:09.445Z,100828.91
2022-09-09T14:46:35.815Z,100831.53
2022-09-09T14:49:05.584Z,100830.78
2022-09-09T14:51:31.903Z,100830.34
2022-09-09T14:54:00.464Z,100827.44
2022-09-09T14:56:30.454Z,100824.91
2022-09-09T14:58:59.089Z,100823.31
2022-09-09T15:01:29.330Z,100824.19
2022-09-09T15:03:58.957Z,100825.47
2022-09-09T15:06:27.404Z,100823.03
2022-09-09T15:08:54.487Z,100817.16
2022-09-09T15:11:23.055Z,100825.97
2022-09-09T15:13:53.574Z,100830.34
2022-09-09T15:16:22.632Z,100832.22
2022-09-09T15:18:55.302Z,100839.72
2022-09-09T15:21:23.978Z,100850.63
2022-09-09T15:23:50.837Z,100845.34
2022-09-09T15:26:18.101Z,100850.81
2022-09-09T15:28:48.167Z,100858.50
2022-09-09T15:31:20.829Z,100852.53
2022-09-09T15:33:52.598Z,100862.41
2022-09-09T15:36:26.426Z,100866.97
2022-09-09T15:38:53.591Z,100873.19
2022-09-09T15:41:21.453Z,100872.44
2022-09-09T15:43:53.495Z,100866.81
2022-09-09T15:46:39.637Z,100863.19
2022-09-09T15:49:07.889Z,100868.19
2022-09-09T15:51:43.623Z,100874.31
2022-09-09T15:54:13.510Z,100866.44
2022-09-09T15:56:40.795Z,100869.75
2022-09-09T15:59:10.632Z,100860.13
2022-09-09T16:01:37.930Z,100857.75
2022-09-09T16:04:05.228Z,100858.16
2022-09-09T16:06:32.185Z,100845.53
2022-09-09T16:09:02.081Z,100851.75
2022-09-09T16:11:34.536Z,100858.72
2022-09-09T16:14:01.589Z,100864.84
2022-09-09T16:16:30.252Z,100861.59
2022-09-09T16:19:02.183Z,100869.13
2022-09-09T16:21:35.410Z,100856.78
2022-09-09T16:24:03.923Z,100864.19
2022-09-09T16:26:31.924Z,100862.72
2022-09-09T16:29:04.335Z,100867.75
2022-09-09T16:31:33.204Z,100863.50
2022-09-09T16:33:59.754Z,100865.63
2022-09-09T16:36:32.183Z,100875.38
2022-09-09T16:39:01.914Z,100876.88
2022-09-09T16:41:30.115Z,100882.63
2022-09-09T16:43:59.102Z,100880.50
2022-09-09T16:46:27.013Z,100896.31
2022-09-09T16:48:53.476Z,100889.41
2022-09-09T16:51:28.803Z,100897.94
2022-09-09T16:53:56.177Z,100897.38
2022-09-09T16:56:27.889Z,100897.47
2022-09-09T16:58:57.021Z,100892.56
2022-09-09T17:01:25.241Z,100897.72
2022-09-09T17:04:00.190Z,100901.63
2022-09-09T17:06:29.815Z,100895.78
2022-09-09T17:08:58.318Z,100902.41
2022-09-09T17:11:25.033Z,100904.63
2022-09-09T17:13:52.817Z,100902.53
2022-09-09T17:16:22.684Z,100911.16
2022-09-09T17:18:50.812Z,100905.59
2022-09-09T17:21:22.263Z,100904.03
2022-09-09T17:23:49.285Z,100912.06
2022-09-09T17:26:18.693Z,100909.41
2022-09-09T17:28:46.487Z,100913.84
2022-09-09T17:31:15.495Z,100907.19
2022-09-09T17:33:44.078Z,100915.16
2022-09-09T17:36:12.449Z,100911.59
2022-09-09T17:38:39.485Z,100908.41
2022-09-09T17:41:12.804Z,100917.19
2022-09-09T17:43:40.145Z,100919.84
2022-09-09T17:46:13.441Z,100920.13
2022-09-09T17:48:40.976Z,100927.16
2022-09-09T17:51:10.909Z,100929.28
2022-09-09T17:53:39.377Z,100922.00
2022-09-09T17:56:07.969Z,100931.19
2022-09-09T17:58:36.523Z,100927.91
2022-09-09T18:01:08.245Z,100930.03
2022-09-09T18:03:36.555Z,100933.06
2022-09-09T18:06:05.725Z,100937.56
2022-09-09T18:08:36.101Z,100930.19
2022-09-09T18:11:03.953Z,100931.91
2022-09-09T18:13:30.446Z,100942.56
2022-09-09T18:15:56.939Z,100945.47
2022-09-09T18:18:24.527Z,100938.47
2022-09-09T18:21:02.103Z,100948.06
2022-09-09T18:23:30.035Z,100946.47
2022-09-09T18:25:58.788Z,100951.94
2022-09-09T18:28:28.433Z,100958.84
2022-09-09T18:30:55.077Z,100968.38
2022-09-09T18:33:21.755Z,100975.97
2022-09-09T18:35:48.727Z,100977.81
2022-09-09T18:38:17.268Z,100984.81
2022-09-09T18:40:44.066Z,100978.16
2022-09-09T18:43:12.782Z,100987.81
2022-09-09T18:45:39.356Z,100990.50
2022-09-09T18:48:05.755Z,100988.00
2022-09-09T18:50:34.070Z,100993.19
2022-09-09T18:53:00.422Z,100987.50
2022-09-09T18:55:28.727Z,100980.66
2022-09-09T18:57:55.164Z,100984.06
2022-09-09T19:00:21.484Z,100983.56
2022-09-09T19:02:52.187Z,100976.06
2022-09-09T19:05:18.642Z,100984.22
2022-09-09T19:07:45.055Z,100985.28
2022-09-09T19:10:11.459Z,100987.28
2022-09-09T19:12:39.157Z,100997.03
2022-09-09T19:15:05.818Z,101005.06
2022-09-09T19:17:33.446Z,101005.06
2022-09-09T19:19:59.822Z,101009.63
2022-09-09T19:22:26.457Z,101004.78
2022-09-09T19:24:52.865Z,101009.16
2022-09-09T19:27:19.425Z,101013.81
2022-09-09T19:29:45.768Z,101011.50
2022-09-09T19:34:58.649Z,101020.47
2022-09-09T19:37:25.315Z,101030.06
2022-09-09T19:39:52.096Z,101030.13
2022-09-09T19:42:18.881Z,101038.72
2022-09-09T19:44:45.419Z,101038.72
2022-09-09T19:47:14.307Z,101034.38
2022-09-09T19:49:43.889Z,101044.72
2022-09-09T19:52:12.710Z,101040.63
2022-09-09T19:54:39.110Z,101047.63
2022-09-09T19:57:05.762Z,101044.97
2022-09-09T19:59:32.544Z,101039.09
2022-09-09T20:01:59.134Z,101040.16
2022-09-09T20:04:26.280Z,101041.03
2022-09-09T20:06:54.050Z,101039.34
2022-09-09T20:09:21.915Z,101042.84
2022-09-09T20:11:49.768Z,101045.41
2022-09-09T20:14:17.301Z,101040.34
2022-09-09T20:16:45.567Z,101043.06
2022-09-09T20:19:13.509Z,101032.06
2022-09-09T20:21:47.331Z,101045.97
2022-09-09T20:24:17.014Z,101040.03
2022-09-09T20:26:44.553Z,101037.50
2022-09-09T20:29:16.031Z,101043.50
2022-09-09T20:31:43.810Z,101044.50
2022-09-09T20:34:13.205Z,101051.56
2022-09-09T20:36:41.304Z,101053.47
2022-09-09T20:39:14.946Z,101056.22
2022-09-09T20:41:44.248Z,101054.44
2022-09-09T20:44:19.183Z,101058.88
2022-09-09T20:46:51.993Z,101067.59
2022-09-09T20:49:21.979Z,101062.50
2022-09-09T20:51:50.453Z,101060.88
2022-09-09T20:54:20.557Z,101061.81
2022-09-09T20:56:48.386Z,101054.19
2022-09-09T20:59:17.806Z,101049.25
2022-09-09T21:01:46.992Z,101052.72
2022-09-09T21:04:14.500Z,101055.31
2022-09-09T21:06:44.390Z,101053.63
2022-09-09T21:09:11.534Z,101054.41
2022-09-09T21:11:38.028Z,101055.16
2022-09-09T21:14:04.731Z,101055.97
2022-09-09T21:16:31.449Z,101065.38
2022-09-09T21:19:02.041Z,101056.91
2022-09-09T21:21:28.606Z,101063.75
2022-09-09T21:23:57.412Z,101058.47
2022-09-09T21:26:24.838Z,101069.56
2022-09-09T21:28:57.373Z,101064.41
2022-09-09T21:31:27.854Z,101060.88
2022-09-09T21:33:54.550Z,101065.38
2022-09-09T21:36:20.948Z,101060.47
2022-09-09T21:38:47.289Z,101062.22
2022-09-09T21:41:15.331Z,101063.97
2022-09-09T21:43:43.662Z,101061.44
2022-09-09T21:46:12.679Z,101064.13
2022-09-09T21:48:44.458Z,101067.69
2022-09-09T21:51:14.392Z,101060.91
2022-09-09T21:53:40.970Z,101058.50
2022-09-09T21:56:13.382Z,101059.47
2022-09-09T21:59:12.021Z,101064.75
2022-09-09T22:01:40.258Z,101065.72
2022-09-09T22:04:06.708Z,101065.88
2022-09-09T22:06:33.113Z,101068.47
2022-09-09T22:09:09.585Z,101064.28
2022-09-09T22:11:36.373Z,101063.66
2022-09-09T22:14:02.894Z,101063.09
2022-09-09T22:16:29.488Z,101061.44
2022-09-09T22:19:11.081Z,101059.16
2022-09-09T22:21:37.489Z,101064.44
2022-09-09T22:24:05.374Z,101069.47
2022-09-09T22:26:34.625Z,101065.13
2022-09-09T22:29:09.025Z,101066.09
2022-09-09T22:31:36.623Z,101066.19
2022-09-09T22:34:03.328Z,101059.50
2022-09-09T22:36:29.768Z,101066.34
2022-09-09T22:38:56.720Z,101064.72
2022-09-09T22:41:25.067Z,101069.03
2022-09-09T22:43:51.527Z,101070.94
2022-09-09T22:46:18.998Z,101073.56
2022-09-09T22:48:45.476Z,101070.16
2022-09-09T22:51:14.061Z,101060.75
2022-09-09T22:53:42.634Z,101062.66
2022-09-09T22:56:14.010Z,101051.53
2022-09-09T22:58:40.691Z,101060.19
2022-09-09T23:01:19.181Z,101070.56
2022-09-09T23:03:46.183Z,101068.78
2022-09-09T23:06:21.614Z,101075.72
2022-09-09T23:09:14.749Z,101080.00
2022-09-09T23:11:41.471Z,101076.44
2022-09-09T23:14:11.405Z,101084.88
2022-09-09T23:16:43.385Z,101083.19
2022-09-09T23:19:15.708Z,101086.59
2022-09-09T23:21:44.110Z,101088.28
2022-09-09T23:24:13.153Z,101085.72
2022-09-09T23:26:40.729Z,101086.47
2022-09-09T23:29:07.402Z,101082.22
2022-09-09T23:31:37.807Z,101082.16
2022-09-09T23:34:05.260Z,101090.72
2022-09-09T23:36:32.157Z,101097.63
2022-09-09T23:39:00.422Z,101082.06
2022-09-09T23:41:26.950Z,101088.13
2022-09-09T23:43:53.515Z,101082.00
2022-09-09T23:46:23.434Z,101085.38
2022-09-09T23:48:51.558Z,101080.13
2022-09-09T23:51:20.724Z,101080.06
2022-09-09T23:53:51.036Z,101079.91
2022-09-09T23:56:22.560Z,101080.75
2022-09-09T23:58:50.273Z,101073.03
